ADDS METAR Data INFO
IDs: Format: Raw Decoded Include TAF

Data at: 1740 UTC 15 Dec 2017

KHQG 151735Z AUTO 24009KT 10SM CLR 08/M04 A3013 RMK AO2 T00811040
KHQG 151715Z AUTO 23008KT 10SM CLR 06/M03 A3013 RMK AO2 T00611032
KHQG 151655Z AUTO 23008KT 10SM CLR 05/M03 A3014 RMK AO2 T00521027
KHQG 151635Z AUTO 25008KT 10SM CLR 03/M03 A3015 RMK AO2 T00341033
KHQG 151615Z AUTO 24007KT 10SM CLR 03/M02 A3016 RMK AO2 T00331022
KHQG 151555Z AUTO 26007KT 10SM CLR 01/M04 A3017 RMK AO2 T00111036
KHQG 151535Z AUTO 25008KT 10SM CLR 01/M04 A3016 RMK AO2 T00051038
KHQG 151515Z AUTO 25006KT 10SM CLR M01/M04 A3017 RMK AO2 T10081044
KHQG 151455Z AUTO 24006KT 10SM CLR M03/M07 A3017 RMK AO2 T10341066
KHQG 151435Z AUTO 26006KT 10SM CLR M05/M07 A3018 RMK AO2 T10501075
KHQG 151415Z AUTO 27006KT 10SM CLR M05/M07 A3019 RMK AO2 T10501075
KHQG 151355Z AUTO 26007KT 10SM CLR M05/M07 A3019 RMK AO2 T10511073
KHQG 151335Z AUTO 26008KT 10SM CLR M08/M10 A3020 RMK AO2 T10781100
KHQG 151315Z AUTO 27006KT 10SM CLR M08/M10 A3021 RMK AO2 T10781101
KHQG 151255Z AUTO 27005KT 10SM CLR M08/M10 A3022 RMK AO2 T10781102
KHQG 151235Z AUTO 28005KT 10SM CLR M07/M10 A3022 RMK AO2 T10741099
KHQG 151215Z AUTO 28006KT 10SM CLR M06/M09 A3022 RMK AO2 T10651090
KHQG 151155Z AUTO 27007KT 10SM CLR M06/M09 A3023 RMK AO2 T10651090 11046 21072
KHQG 151135Z AUTO 27006KT 10SM CLR M06/M09 A3023 RMK AO2 T10651090
KHQG 151115Z AUTO 27008KT 10SM CLR M06/M09 A3024 RMK AO2 T10651092
KHQG 151055Z AUTO 27008KT 10SM CLR M06/M09 A3024 RMK AO2 T10651092
KHQG 151035Z AUTO 27008KT 10SM CLR M06/M09 A3024 RMK AO2 T10611088
KHQG 151015Z AUTO 27008KT 10SM CLR M06/M09 A3025 RMK AO2 T10651090
KHQG 150955Z AUTO 27007KT 10SM CLR M06/M09 A3027 RMK AO2 T10651090
KHQG 150935Z AUTO 27008KT 10SM CLR M06/M09 A3027 RMK AO2 T10651090
KHQG 150915Z AUTO 28007KT 10SM CLR M06/M09 A3027 RMK AO2 T10651090
KHQG 150855Z AUTO 28006KT 10SM CLR M07/M10 A3027 RMK AO2 T10721096
KHQG 150835Z AUTO 28007KT 10SM CLR M06/M09 A3027 RMK AO2 T10651090
KHQG 150815Z AUTO 28007KT 10SM CLR M06/M09 A3027 RMK AO2 T10651090
KHQG 150755Z AUTO 29007KT 10SM CLR M06/M09 A3028 RMK AO2 T10651090
KHQG 150735Z AUTO 29009KT 10SM CLR M06/M08 A3027 RMK AO2 T10591084
KHQG 150715Z AUTO 29007KT 10SM CLR M06/M09 A3028 RMK AO2 T10651090
KHQG 150655Z AUTO 28008KT 10SM CLR M06/M09 A3028 RMK AO2 T10651090
KHQG 150635Z AUTO 28006KT 10SM CLR M06/M09 A3029 RMK AO2 T10641091
KHQG 150615Z AUTO 31007KT 10SM CLR M05/M08 A3029 RMK AO2 T10501080
KHQG 150555Z AUTO 31006KT 10SM CLR M05/M08 A3029 RMK AO2 T10481079 10047 21065 400901065
KHQG 150535Z AUTO 31007KT 10SM CLR M05/M08 A3030 RMK AO2 T10501077
KHQG 150515Z AUTO 31007KT 10SM CLR M05/M08 A3030 RMK AO2 T10501077
KHQG 150455Z AUTO 31006KT 10SM CLR M06/M09 A3029 RMK AO2 T10651086
KHQG 150435Z AUTO 29005KT 10SM CLR M05/M07 A3029 RMK AO2 T10501075
KHQG 150415Z AUTO 30008KT 10SM CLR M05/M07 A3029 RMK AO2 T10481071
KHQG 150355Z AUTO 31007KT 10SM CLR M05/M07 A3029 RMK AO2 T10501075
KHQG 150335Z AUTO 30005KT 10SM CLR M04/M07 A3028 RMK AO2 T10451075
KHQG 150315Z AUTO 31008KT 10SM CLR M03/M06 A3027 RMK AO2 T10321065
KHQG 150255Z AUTO 31008KT 10SM CLR M03/M07 A3027 RMK AO2 T10331067
KHQG 150235Z AUTO 31008KT 10SM CLR M02/M06 A3027 RMK AO2 T10221063
KHQG 150215Z AUTO 31007KT 10SM CLR 00/M05 A3027 RMK AO2 T10021047
KHQG 150155Z AUTO 33007KT 10SM CLR 01/M03 A3027 RMK AO2 T00111035
KHQG 150135Z AUTO 34008KT 10SM CLR 01/M05 A3025 RMK AO2 T00071051
KHQG 150115Z AUTO 35012KT 10SM CLR 03/M04 A3025 RMK AO2 T00331039
KHQG 150055Z AUTO 32011KT 10SM CLR 02/M04 A3024 RMK AO2 T00231036
KHQG 150035Z AUTO 31009KT 10SM CLR 03/M03 A3022 RMK AO2 T00331034
KHQG 150015Z AUTO 32010KT 10SM CLR 05/M03 A3022 RMK AO2 T00471034
KHQG 142355Z AUTO 33013KT 10SM SCT060 05/M03 A3021 RMK AO2 T00471031 10090 20047
KHQG 142335Z AUTO 32013KT 10SM SCT060 05/M03 A3021 RMK AO2 T00471031
KHQG 142315Z AUTO 35020G30KT 10SM CLR 05/M02 A3021 RMK AO2 T00511025
KHQG 142255Z AUTO 36022G29KT 10SM CLR 07/M05 A3019 RMK AO2 T00681054
KHQG 142235Z AUTO 35017G23KT 10SM CLR 08/M07 A3018 RMK AO2 T00751070
KHQG 142215Z AUTO 35020G24KT 10SM CLR 08/M07 A3017 RMK AO2 T00751072
KHQG 142155Z AUTO 36018G25KT 10SM SCT060 08/M07 A3016 RMK AO2 T00761075
KHQG 142135Z AUTO 36018G22KT 10SM SCT060 08/M07 A3016 RMK AO2 T00801070
KHQG 142115Z AUTO 35021G24KT 10SM CLR 08/M07 A3015 RMK AO2 T00821067
KHQG 142055Z AUTO 35021G24KT 10SM SCT049 09/M05 A3015 RMK AO2 T00861054
KHQG 142035Z AUTO 35018KT 10SM SCT045 08/M03 A3015 RMK AO2 T00841035
KHQG 142015Z AUTO 34016G22KT 10SM SCT043 09/M04 A3015 RMK AO2 T00851038
KHQG 141955Z AUTO 34017G25KT 10SM SCT041 09/M04 A3015 RMK AO2 T00881036
KHQG 141935Z AUTO 34017G21KT 10SM CLR 08/M04 A3016 RMK AO2 T00751038
KHQG 141915Z AUTO 34018G21KT 10SM CLR 08/M03 A3016 RMK AO2 T00831033
KHQG 141855Z AUTO 34015G22KT 10SM SCT034 SCT040 08/M03 A3018 RMK AO2 T00771035
KHQG 141835Z AUTO 33015G21KT 10SM SCT026 SCT031 09/M02 A3018 RMK AO2 T00871020
KHQG 141815Z AUTO 31013KT 10SM SCT025 06/M01 A3019 RMK AO2 T00631015
KHQG 141755Z AUTO 32014KT 10SM CLR 06/00 A3021 RMK AO2 T00611005 10061 20018
KHQG 141735Z AUTO 29013KT 10SM CLR 05/00 A3022 RMK AO2 T00541002
KHQG 141715Z AUTO 30014G19KT 10SM CLR 05/00 A3023 RMK AO2 T00470000
KHQG 141655Z AUTO 30014KT 10SM CLR 03/00 A3023 RMK AO2 T00331005
KHQG 141635Z AUTO 30015KT 10SM CLR 03/00 A3023 RMK AO2 T00330000
KHQG 141615Z AUTO 30011KT 10SM CLR 03/01 A3023 RMK AO2 T00330005
KHQG 141555Z AUTO 31011KT 10SM SCT010 03/01 A3023 RMK AO2 T00330006
KHQG 141535Z AUTO 32011KT 10SM -RA SCT010 03/00 A3023 RMK AO2 T00330004
KHQG 141515Z AUTO 31011KT 10SM CLR 03/00 A3022 RMK AO2 T00330003
KHQG 141455Z AUTO 32010KT 10SM CLR 02/M01 A3022 RMK AO2 T00181006
KHQG 141435Z AUTO 33008KT 10SM CLR 02/00 A3021 RMK AO2 T00181005
KHQG 141415Z AUTO 35010KT 10SM CLR 02/00 A3020 RMK AO2 T00181005
KHQG 141355Z AUTO 36012KT 10SM -SN SCT009 BKN015 02/00 A3019 RMK AO2 T00181005
KHQG 141335Z AUTO 01014KT 5SM -SN BKN009 BKN015 02/M01 A3019 RMK AO2 T00181008
KHQG 141315Z AUTO 02016G21KT 7SM -SN SCT009 03/M01 A3018 RMK AO2 T00311014
KHQG 141255Z AUTO 36019G23KT 10SM CLR 03/M07 A3017 RMK AO2 T00331066
KHQG 141235Z AUTO 35009KT 10SM CLR 03/M06 A3016 RMK AO2 T00331065
KHQG 141215Z AUTO 35008KT 10SM CLR 03/M06 A3016 RMK AO2 T00331065
KHQG 141155Z AUTO 01007KT 10SM CLR 03/M07 A3014 RMK AO2 T00331067 10061 20033
KHQG 141135Z AUTO 01008KT 10SM CLR 03/M07 A3014 RMK AO2 T00331070
KHQG 141115Z AUTO 01008KT 10SM CLR 03/M07 A3013 RMK AO2 T00331070
KHQG 141055Z AUTO 01009KT 10SM CLR 03/M07 A3013 RMK AO2 T00331075
KHQG 141035Z AUTO 01007KT 10SM CLR 03/M07 A3011 RMK AO2 T00331075
KHQG 141015Z AUTO 36006KT 10SM CLR 03/M08 A3012 RMK AO2 T00331080
KHQG 140955Z AUTO 36008KT 10SM CLR 03/M08 A3011 RMK AO2 T00331081
KHQG 140935Z AUTO 36005KT 10SM CLR 03/M08 A3011 RMK AO2 T00331080
KHQG 140915Z AUTO 36005KT 10SM CLR 03/M08 A3011 RMK AO2 T00331080
KHQG 140855Z AUTO 36005KT 10SM CLR 03/M08 A3011 RMK AO2 T00331083
KHQG 140835Z AUTO 36005KT 10SM CLR 03/M08 A3011 RMK AO2 T00331082
KHQG 140815Z AUTO 36006KT 10SM CLR 03/M09 A3010 RMK AO2 T00331086
KHQG 140755Z AUTO 36005KT 10SM CLR 03/M08 A3010 RMK AO2 T00331084
KHQG 140735Z AUTO 02005KT 10SM CLR 03/M09 A3008 RMK AO2 T00331088
KHQG 140715Z AUTO 03004KT 10SM CLR 05/M09 A3008 RMK AO2 T00471086
KHQG 140655Z AUTO 04004KT 10SM CLR 05/M10 A3007 RMK AO2 T00471096
KHQG 140635Z AUTO 04006KT 10SM CLR 05/M10 A3007 RMK AO2 T00501098
KHQG 140615Z AUTO 05006KT 10SM CLR 06/M09 A3007 RMK AO2 T00611091
KHQG 140555Z AUTO 04006KT 10SM CLR 06/M10 A3006 RMK AO2 T00611097 10076 20061 401751008